sensor_id;sensor_type;location;lat;lon;timestamp;P1;durP1;ratioP1;P2;durP2;ratioP2
20124;SDS011;10223;50.862;4.360;2022-10-17T00:01:39;11.17;;;4.07;;
20124;SDS011;10223;50.862;4.360;2022-10-17T00:04:06;5.53;;;4.10;;
20124;SDS011;10223;50.862;4.360;2022-10-17T00:06:32;8.03;;;4.27;;
20124;SDS011;10223;50.862;4.360;2022-10-17T00:08:59;6.23;;;3.97;;
20124;SDS011;10223;50.862;4.360;2022-10-17T00:11:26;7.97;;;4.53;;
20124;SDS011;10223;50.862;4.360;2022-10-17T00:13:54;7.00;;;4.10;;
20124;SDS011;10223;50.862;4.360;2022-10-17T00:16:24;6.43;;;4.10;;
20124;SDS011;10223;50.862;4.360;2022-10-17T00:18:54;7.07;;;4.20;;
20124;SDS011;10223;50.862;4.360;2022-10-17T00:21:21;6.75;;;3.80;;
20124;SDS011;10223;50.862;4.360;2022-10-17T00:23:48;8.10;;;3.97;;
20124;SDS011;10223;50.862;4.360;2022-10-17T00:26:15;6.80;;;4.10;;
20124;SDS011;10223;50.862;4.360;2022-10-17T00:28:44;7.13;;;4.28;;
20124;SDS011;10223;50.862;4.360;2022-10-17T00:31:11;8.80;;;4.40;;
20124;SDS011;10223;50.862;4.360;2022-10-17T00:33:42;7.10;;;4.43;;
20124;SDS011;10223;50.862;4.360;2022-10-17T00:36:11;7.18;;;4.60;;
20124;SDS011;10223;50.862;4.360;2022-10-17T00:38:39;7.90;;;4.30;;
20124;SDS011;10223;50.862;4.360;2022-10-17T00:41:07;9.30;;;4.70;;
20124;SDS011;10223;50.862;4.360;2022-10-17T00:43:49;6.93;;;4.60;;
20124;SDS011;10223;50.862;4.360;2022-10-17T00:46:20;10.38;;;5.00;;
20124;SDS011;10223;50.862;4.360;2022-10-17T00:48:50;4.70;;;3.90;;
20124;SDS011;10223;50.862;4.360;2022-10-17T00:51:22;8.52;;;4.78;;
20124;SDS011;10223;50.862;4.360;2022-10-17T00:53:53;7.65;;;4.53;;
20124;SDS011;10223;50.862;4.360;2022-10-17T00:56:21;7.65;;;4.93;;
20124;SDS011;10223;50.862;4.360;2022-10-17T00:58:48;13.95;;;5.93;;
20124;SDS011;10223;50.862;4.360;2022-10-17T01:01:15;8.75;;;4.63;;
20124;SDS011;10223;50.862;4.360;2022-10-17T01:03:42;8.00;;;5.13;;
20124;SDS011;10223;50.862;4.360;2022-10-17T01:06:09;11.30;;;4.80;;
20124;SDS011;10223;50.862;4.360;2022-10-17T01:08:38;7.18;;;4.35;;
20124;SDS011;10223;50.862;4.360;2022-10-17T01:11:08;9.07;;;4.68;;
20124;SDS011;10223;50.862;4.360;2022-10-17T01:13:43;10.57;;;5.20;;
20124;SDS011;10223;50.862;4.360;2022-10-17T01:16:16;11.05;;;4.57;;
20124;SDS011;10223;50.862;4.360;2022-10-17T01:18:50;9.40;;;4.70;;
20124;SDS011;10223;50.862;4.360;2022-10-17T01:21:29;8.70;;;4.97;;
20124;SDS011;10223;50.862;4.360;2022-10-17T01:27:31;19.13;;;4.80;;
20124;SDS011;10223;50.862;4.360;2022-10-17T01:30:11;6.80;;;4.55;;
20124;SDS011;10223;50.862;4.360;2022-10-17T01:32:53;7.53;;;5.28;;
20124;SDS011;10223;50.862;4.360;2022-10-17T01:35:25;8.40;;;4.45;;
20124;SDS011;10223;50.862;4.360;2022-10-17T01:37:55;8.00;;;4.93;;
20124;SDS011;10223;50.862;4.360;2022-10-17T01:40:32;9.00;;;4.90;;
20124;SDS011;10223;50.862;4.360;2022-10-17T01:43:03;6.75;;;4.22;;
20124;SDS011;10223;50.862;4.360;2022-10-17T01:45:36;5.55;;;4.25;;
20124;SDS011;10223;50.862;4.360;2022-10-17T01:48:10;8.33;;;4.40;;
20124;SDS011;10223;50.862;4.360;2022-10-17T01:50:42;10.85;;;4.60;;
20124;SDS011;10223;50.862;4.360;2022-10-17T01:53:15;7.57;;;4.40;;
20124;SDS011;10223;50.862;4.360;2022-10-17T01:55:47;7.78;;;4.65;;
20124;SDS011;10223;50.862;4.360;2022-10-17T01:58:18;8.80;;;4.20;;
20124;SDS011;10223;50.862;4.360;2022-10-17T02:00:47;7.07;;;4.50;;
20124;SDS011;10223;50.862;4.360;2022-10-17T02:03:17;6.35;;;3.90;;
20124;SDS011;10223;50.862;4.360;2022-10-17T02:05:46;8.18;;;4.28;;
20124;SDS011;10223;50.862;4.360;2022-10-17T02:08:13;7.03;;;4.05;;
20124;SDS011;10223;50.862;4.360;2022-10-17T02:10:51;6.75;;;4.35;;
20124;SDS011;10223;50.862;4.360;2022-10-17T02:13:24;6.93;;;3.70;;
20124;SDS011;10223;50.862;4.360;2022-10-17T02:16:07;11.35;;;4.40;;
20124;SDS011;10223;50.862;4.360;2022-10-17T02:18:50;10.55;;;4.15;;
20124;SDS011;10223;50.862;4.360;2022-10-17T02:21:32;6.40;;;3.75;;
20124;SDS011;10223;50.862;4.360;2022-10-17T02:24:06;8.98;;;3.85;;
20124;SDS011;10223;50.862;4.360;2022-10-17T02:26:43;6.78;;;4.07;;
20124;SDS011;10223;50.862;4.360;2022-10-17T02:29:15;9.00;;;3.70;;
20124;SDS011;10223;50.862;4.360;2022-10-17T02:31:45;6.95;;;3.70;;
20124;SDS011;10223;50.862;4.360;2022-10-17T02:34:17;8.68;;;3.70;;
20124;SDS011;10223;50.862;4.360;2022-10-17T02:36:48;7.78;;;3.53;;
20124;SDS011;10223;50.862;4.360;2022-10-17T02:39:18;8.13;;;4.15;;
20124;SDS011;10223;50.862;4.360;2022-10-17T02:41:47;8.90;;;4.32;;
20124;SDS011;10223;50.862;4.360;2022-10-17T02:44:16;5.18;;;3.60;;
20124;SDS011;10223;50.862;4.360;2022-10-17T02:46:43;8.35;;;4.00;;
20124;SDS011;10223;50.862;4.360;2022-10-17T02:49:14;8.13;;;4.05;;
20124;SDS011;10223;50.862;4.360;2022-10-17T02:51:48;9.07;;;4.20;;
20124;SDS011;10223;50.862;4.360;2022-10-17T02:54:21;5.35;;;3.70;;
20124;SDS011;10223;50.862;4.360;2022-10-17T02:56:54;6.15;;;3.80;;
20124;SDS011;10223;50.862;4.360;2022-10-17T02:59:24;11.90;;;3.83;;
20124;SDS011;10223;50.862;4.360;2022-10-17T03:01:54;12.13;;;4.15;;
20124;SDS011;10223;50.862;4.360;2022-10-17T03:04:22;5.72;;;3.75;;
20124;SDS011;10223;50.862;4.360;2022-10-17T03:06:49;5.05;;;3.70;;
20124;SDS011;10223;50.862;4.360;2022-10-17T03:09:16;6.80;;;3.88;;
20124;SDS011;10223;50.862;4.360;2022-10-17T03:11:43;10.50;;;4.43;;
20124;SDS011;10223;50.862;4.360;2022-10-17T03:14:10;7.53;;;4.35;;
20124;SDS011;10223;50.862;4.360;2022-10-17T03:16:37;11.63;;;5.03;;
20124;SDS011;10223;50.862;4.360;2022-10-17T03:19:04;8.73;;;4.18;;
20124;SDS011;10223;50.862;4.360;2022-10-17T03:21:33;7.22;;;3.90;;
20124;SDS011;10223;50.862;4.360;2022-10-17T03:24:02;8.23;;;3.65;;
20124;SDS011;10223;50.862;4.360;2022-10-17T03:26:29;7.65;;;3.78;;
20124;SDS011;10223;50.862;4.360;2022-10-17T03:28:56;8.38;;;4.40;;
20124;SDS011;10223;50.862;4.360;2022-10-17T03:31:23;8.98;;;4.45;;
20124;SDS011;10223;50.862;4.360;2022-10-17T03:33:50;10.95;;;4.55;;
20124;SDS011;10223;50.862;4.360;2022-10-17T03:36:17;11.70;;;4.50;;
20124;SDS011;10223;50.862;4.360;2022-10-17T03:38:46;6.43;;;4.10;;
20124;SDS011;10223;50.862;4.360;2022-10-17T03:41:13;15.15;;;4.60;;
20124;SDS011;10223;50.862;4.360;2022-10-17T03:43:40;7.72;;;4.05;;
20124;SDS011;10223;50.862;4.360;2022-10-17T03:46:07;14.10;;;4.60;;
20124;SDS011;10223;50.862;4.360;2022-10-17T03:48:34;14.30;;;4.68;;
20124;SDS011;10223;50.862;4.360;2022-10-17T03:51:01;8.38;;;4.53;;
20124;SDS011;10223;50.862;4.360;2022-10-17T03:53:29;9.75;;;4.68;;
20124;SDS011;10223;50.862;4.360;2022-10-17T03:56:07;10.15;;;4.65;;
20124;SDS011;10223;50.862;4.360;2022-10-17T03:58:35;11.18;;;4.50;;
20124;SDS011;10223;50.862;4.360;2022-10-17T04:01:02;5.35;;;4.10;;
20124;SDS011;10223;50.862;4.360;2022-10-17T04:03:30;8.43;;;4.05;;
20124;SDS011;10223;50.862;4.360;2022-10-17T04:05:57;9.88;;;4.93;;
20124;SDS011;10223;50.862;4.360;2022-10-17T04:08:25;10.48;;;4.50;;
20124;SDS011;10223;50.862;4.360;2022-10-17T04:10:56;8.93;;;4.65;;
20124;SDS011;10223;50.862;4.360;2022-10-17T04:13:25;8.82;;;3.97;;
20124;SDS011;10223;50.862;4.360;2022-10-17T04:15:53;12.40;;;4.30;;
20124;SDS011;10223;50.862;4.360;2022-10-17T04:18:20;9.52;;;4.22;;
20124;SDS011;10223;50.862;4.360;2022-10-17T04:20:47;7.60;;;4.45;;
20124;SDS011;10223;50.862;4.360;2022-10-17T04:23:14;8.75;;;4.40;;
20124;SDS011;10223;50.862;4.360;2022-10-17T04:25:41;9.35;;;4.57;;
20124;SDS011;10223;50.862;4.360;2022-10-17T04:28:09;6.47;;;4.47;;
20124;SDS011;10223;50.862;4.360;2022-10-17T04:30:36;6.65;;;4.45;;
20124;SDS011;10223;50.862;4.360;2022-10-17T04:33:04;8.65;;;4.10;;
20124;SDS011;10223;50.862;4.360;2022-10-17T04:35:31;9.10;;;4.38;;
20124;SDS011;10223;50.862;4.360;2022-10-17T04:37:58;9.77;;;4.15;;
20124;SDS011;10223;50.862;4.360;2022-10-17T04:40:25;5.78;;;3.90;;
20124;SDS011;10223;50.862;4.360;2022-10-17T04:42:52;4.68;;;3.53;;
20124;SDS011;10223;50.862;4.360;2022-10-17T04:45:20;6.90;;;3.60;;
20124;SDS011;10223;50.862;4.360;2022-10-17T04:47:47;10.13;;;4.00;;
20124;SDS011;10223;50.862;4.360;2022-10-17T04:50:14;8.90;;;3.58;;
20124;SDS011;10223;50.862;4.360;2022-10-17T04:52:41;7.15;;;3.60;;
20124;SDS011;10223;50.862;4.360;2022-10-17T04:55:08;7.63;;;3.80;;
20124;SDS011;10223;50.862;4.360;2022-10-17T04:57:35;9.00;;;4.32;;
20124;SDS011;10223;50.862;4.360;2022-10-17T05:00:02;7.93;;;3.90;;
20124;SDS011;10223;50.862;4.360;2022-10-17T05:02:31;7.80;;;4.18;;
20124;SDS011;10223;50.862;4.360;2022-10-17T05:04:58;9.35;;;4.35;;
20124;SDS011;10223;50.862;4.360;2022-10-17T05:07:25;10.77;;;4.50;;
20124;SDS011;10223;50.862;4.360;2022-10-17T05:09:52;10.45;;;4.47;;
20124;SDS011;10223;50.862;4.360;2022-10-17T05:12:19;10.47;;;4.57;;
20124;SDS011;10223;50.862;4.360;2022-10-17T05:14:46;9.07;;;4.45;;
20124;SDS011;10223;50.862;4.360;2022-10-17T05:17:12;11.20;;;4.07;;
20124;SDS011;10223;50.862;4.360;2022-10-17T05:19:41;10.27;;;4.78;;
20124;SDS011;10223;50.862;4.360;2022-10-17T05:22:08;7.57;;;4.50;;
20124;SDS011;10223;50.862;4.360;2022-10-17T05:24:35;7.70;;;4.05;;
20124;SDS011;10223;50.862;4.360;2022-10-17T05:27:01;7.50;;;4.00;;
20124;SDS011;10223;50.862;4.360;2022-10-17T05:29:28;9.00;;;4.07;;
20124;SDS011;10223;50.862;4.360;2022-10-17T05:31:55;5.82;;;3.67;;
20124;SDS011;10223;50.862;4.360;2022-10-17T05:34:22;6.18;;;4.47;;
20124;SDS011;10223;50.862;4.360;2022-10-17T05:36:51;11.85;;;4.38;;
20124;SDS011;10223;50.862;4.360;2022-10-17T05:39:18;10.95;;;4.18;;
20124;SDS011;10223;50.862;4.360;2022-10-17T05:41:45;7.72;;;3.88;;
20124;SDS011;10223;50.862;4.360;2022-10-17T05:44:12;7.88;;;4.10;;
20124;SDS011;10223;50.862;4.360;2022-10-17T05:46:39;12.23;;;4.10;;
20124;SDS011;10223;50.862;4.360;2022-10-17T05:49:08;10.43;;;4.13;;
20124;SDS011;10223;50.862;4.360;2022-10-17T05:51:35;6.57;;;3.95;;
20124;SDS011;10223;50.862;4.360;2022-10-17T05:54:05;12.23;;;3.70;;
20124;SDS011;10223;50.862;4.360;2022-10-17T05:56:32;10.32;;;4.03;;
20124;SDS011;10223;50.862;4.360;2022-10-17T05:58:59;8.45;;;4.05;;
20124;SDS011;10223;50.862;4.360;2022-10-17T06:01:26;6.03;;;4.20;;
20124;SDS011;10223;50.862;4.360;2022-10-17T06:03:53;8.70;;;4.32;;
20124;SDS011;10223;50.862;4.360;2022-10-17T06:06:20;5.50;;;3.53;;
20124;SDS011;10223;50.862;4.360;2022-10-17T06:08:47;9.88;;;3.88;;
20124;SDS011;10223;50.862;4.360;2022-10-17T06:11:16;10.80;;;3.78;;
20124;SDS011;10223;50.862;4.360;2022-10-17T06:13:43;14.20;;;4.15;;
20124;SDS011;10223;50.862;4.360;2022-10-17T06:16:10;9.77;;;3.60;;
20124;SDS011;10223;50.862;4.360;2022-10-17T06:18:37;6.28;;;3.83;;
20124;SDS011;10223;50.862;4.360;2022-10-17T06:21:04;6.68;;;3.95;;
20124;SDS011;10223;50.862;4.360;2022-10-17T06:23:33;8.65;;;3.92;;
20124;SDS011;10223;50.862;4.360;2022-10-17T06:26:00;8.85;;;3.90;;
20124;SDS011;10223;50.862;4.360;2022-10-17T06:28:29;10.27;;;3.80;;
20124;SDS011;10223;50.862;4.360;2022-10-17T06:30:56;8.85;;;3.97;;
20124;SDS011;10223;50.862;4.360;2022-10-17T06:33:23;12.00;;;4.03;;
20124;SDS011;10223;50.862;4.360;2022-10-17T06:35:50;7.88;;;4.35;;
20124;SDS011;10223;50.862;4.360;2022-10-17T06:38:18;13.68;;;3.75;;
20124;SDS011;10223;50.862;4.360;2022-10-17T06:40:45;10.43;;;4.10;;
20124;SDS011;10223;50.862;4.360;2022-10-17T06:43:12;9.82;;;4.07;;
20124;SDS011;10223;50.862;4.360;2022-10-17T06:45:40;8.05;;;3.90;;
20124;SDS011;10223;50.862;4.360;2022-10-17T06:48:07;9.57;;;4.15;;
20124;SDS011;10223;50.862;4.360;2022-10-17T06:50:34;8.88;;;4.28;;
20124;SDS011;10223;50.862;4.360;2022-10-17T06:53:01;7.90;;;4.05;;
20124;SDS011;10223;50.862;4.360;2022-10-17T06:55:29;8.80;;;3.83;;
20124;SDS011;10223;50.862;4.360;2022-10-17T06:57:56;8.07;;;3.83;;
20124;SDS011;10223;50.862;4.360;2022-10-17T07:00:23;14.43;;;3.92;;
20124;SDS011;10223;50.862;4.360;2022-10-17T07:02:52;9.93;;;4.32;;
20124;SDS011;10223;50.862;4.360;2022-10-17T07:05:19;10.43;;;4.82;;
20124;SDS011;10223;50.862;4.360;2022-10-17T07:07:46;9.18;;;4.05;;
20124;SDS011;10223;50.862;4.360;2022-10-17T07:10:13;11.40;;;4.55;;
20124;SDS011;10223;50.862;4.360;2022-10-17T07:12:40;10.48;;;3.67;;
20124;SDS011;10223;50.862;4.360;2022-10-17T07:15:09;6.50;;;3.28;;
20124;SDS011;10223;50.862;4.360;2022-10-17T07:17:36;8.35;;;3.22;;
20124;SDS011;10223;50.862;4.360;2022-10-17T07:20:05;8.18;;;2.95;;
20124;SDS011;10223;50.862;4.360;2022-10-17T07:22:33;8.45;;;3.17;;
20124;SDS011;10223;50.862;4.360;2022-10-17T07:25:00;10.23;;;3.42;;
20124;SDS011;10223;50.862;4.360;2022-10-17T07:27:27;9.75;;;4.00;;
20124;SDS011;10223;50.862;4.360;2022-10-17T07:29:54;7.20;;;3.78;;
20124;SDS011;10223;50.862;4.360;2022-10-17T07:32:20;11.43;;;4.65;;
20124;SDS011;10223;50.862;4.360;2022-10-17T07:34:47;10.60;;;4.28;;
20124;SDS011;10223;50.862;4.360;2022-10-17T07:37:16;11.40;;;5.00;;
20124;SDS011;10223;50.862;4.360;2022-10-17T07:39:42;9.10;;;4.40;;
20124;SDS011;10223;50.862;4.360;2022-10-17T07:42:09;9.07;;;4.50;;
20124;SDS011;10223;50.862;4.360;2022-10-17T07:44:38;16.85;;;4.20;;
20124;SDS011;10223;50.862;4.360;2022-10-17T07:47:05;7.32;;;4.10;;
20124;SDS011;10223;50.862;4.360;2022-10-17T07:49:32;11.38;;;4.90;;
20124;SDS011;10223;50.862;4.360;2022-10-17T07:51:59;9.15;;;4.50;;
20124;SDS011;10223;50.862;4.360;2022-10-17T07:54:27;9.77;;;4.40;;
20124;SDS011;10223;50.862;4.360;2022-10-17T07:56:54;6.17;;;4.53;;
20124;SDS011;10223;50.862;4.360;2022-10-17T07:59:21;5.95;;;3.90;;
20124;SDS011;10223;50.862;4.360;2022-10-17T08:01:48;6.63;;;4.15;;
20124;SDS011;10223;50.862;4.360;2022-10-17T08:04:15;5.85;;;3.53;;
20124;SDS011;10223;50.862;4.360;2022-10-17T08:06:42;3.85;;;3.40;;
20124;SDS011;10223;50.862;4.360;2022-10-17T08:09:09;6.57;;;3.50;;
20124;SDS011;10223;50.862;4.360;2022-10-17T08:11:37;6.35;;;3.50;;
20124;SDS011;10223;50.862;4.360;2022-10-17T08:14:04;7.63;;;3.83;;
20124;SDS011;10223;50.862;4.360;2022-10-17T08:16:31;5.00;;;3.67;;
20124;SDS011;10223;50.862;4.360;2022-10-17T08:18:58;10.10;;;4.63;;
20124;SDS011;10223;50.862;4.360;2022-10-17T08:21:26;8.23;;;4.50;;
20124;SDS011;10223;50.862;4.360;2022-10-17T08:23:53;15.50;;;5.27;;
20124;SDS011;10223;50.862;4.360;2022-10-17T08:26:20;10.48;;;4.75;;
20124;SDS011;10223;50.862;4.360;2022-10-17T08:28:49;8.43;;;5.00;;
20124;SDS011;10223;50.862;4.360;2022-10-17T08:31:17;8.20;;;5.57;;
20124;SDS011;10223;50.862;4.360;2022-10-17T08:33:45;9.73;;;5.85;;
20124;SDS011;10223;50.862;4.360;2022-10-17T08:36:13;11.87;;;7.00;;
20124;SDS011;10223;50.862;4.360;2022-10-17T08:38:43;14.70;;;6.03;;
20124;SDS011;10223;50.862;4.360;2022-10-17T08:41:12;15.10;;;6.32;;
20124;SDS011;10223;50.862;4.360;2022-10-17T08:43:49;13.50;;;6.20;;
20124;SDS011;10223;50.862;4.360;2022-10-17T08:46:28;9.50;;;5.77;;
20124;SDS011;10223;50.862;4.360;2022-10-17T08:48:59;9.47;;;6.17;;
20124;SDS011;10223;50.862;4.360;2022-10-17T08:51:30;12.00;;;6.70;;
20124;SDS011;10223;50.862;4.360;2022-10-17T08:54:00;9.60;;;5.40;;
20124;SDS011;10223;50.862;4.360;2022-10-17T08:56:37;10.73;;;6.13;;
20124;SDS011;10223;50.862;4.360;2022-10-17T08:59:11;15.60;;;6.47;;
20124;SDS011;10223;50.862;4.360;2022-10-17T09:01:40;10.27;;;5.30;;
20124;SDS011;10223;50.862;4.360;2022-10-17T09:04:19;14.00;;;5.97;;
20124;SDS011;10223;50.862;4.360;2022-10-17T09:07:08;10.40;;;5.50;;
20124;SDS011;10223;50.862;4.360;2022-10-17T09:09:47;11.73;;;6.53;;
20124;SDS011;10223;50.862;4.360;2022-10-17T09:12:21;11.07;;;5.80;;
20124;SDS011;10223;50.862;4.360;2022-10-17T09:14:58;12.77;;;5.50;;
20124;SDS011;10223;50.862;4.360;2022-10-17T09:17:47;12.50;;;5.10;;
20124;SDS011;10223;50.862;4.360;2022-10-17T09:20:18;13.07;;;5.65;;
20124;SDS011;10223;50.862;4.360;2022-10-17T09:22:48;15.93;;;5.95;;
20124;SDS011;10223;50.862;4.360;2022-10-17T09:25:21;12.40;;;5.20;;
20124;SDS011;10223;50.862;4.360;2022-10-17T09:27:48;9.18;;;5.40;;
20124;SDS011;10223;50.862;4.360;2022-10-17T09:30:26;8.53;;;6.00;;
20124;SDS011;10223;50.862;4.360;2022-10-17T09:32:59;14.02;;;6.45;;
20124;SDS011;10223;50.862;4.360;2022-10-17T09:35:31;9.45;;;5.65;;
20124;SDS011;10223;50.862;4.360;2022-10-17T09:37:58;9.32;;;5.35;;
20124;SDS011;10223;50.862;4.360;2022-10-17T09:40:26;11.98;;;6.10;;
20124;SDS011;10223;50.862;4.360;2022-10-17T09:42:57;12.07;;;6.13;;
20124;SDS011;10223;50.862;4.360;2022-10-17T09:45:28;15.30;;;5.93;;
20124;SDS011;10223;50.862;4.360;2022-10-17T09:48:04;10.77;;;5.85;;
20124;SDS011;10223;50.862;4.360;2022-10-17T09:50:35;10.17;;;6.10;;
20124;SDS011;10223;50.862;4.360;2022-10-17T09:53:04;11.60;;;7.25;;
20124;SDS011;10223;50.862;4.360;2022-10-17T09:55:39;20.48;;;7.28;;
20124;SDS011;10223;50.862;4.360;2022-10-17T09:58:08;14.87;;;6.47;;
20124;SDS011;10223;50.862;4.360;2022-10-17T10:00:39;11.13;;;6.23;;
20124;SDS011;10223;50.862;4.360;2022-10-17T10:03:08;12.73;;;6.10;;
20124;SDS011;10223;50.862;4.360;2022-10-17T10:05:58;12.37;;;7.30;;
20124;SDS011;10223;50.862;4.360;2022-10-17T10:08:28;9.23;;;7.18;;
20124;SDS011;10223;50.862;4.360;2022-10-17T10:10:57;10.97;;;6.37;;
20124;SDS011;10223;50.862;4.360;2022-10-17T10:13:29;12.88;;;6.80;;
20124;SDS011;10223;50.862;4.360;2022-10-17T10:18:42;12.40;;;6.45;;
20124;SDS011;10223;50.862;4.360;2022-10-17T10:21:11;9.73;;;6.78;;
20124;SDS011;10223;50.862;4.360;2022-10-17T10:23:40;13.13;;;6.90;;
20124;SDS011;10223;50.862;4.360;2022-10-17T10:26:15;10.90;;;7.53;;
20124;SDS011;10223;50.862;4.360;2022-10-17T10:28:52;10.38;;;6.95;;
20124;SDS011;10223;50.862;4.360;2022-10-17T10:31:27;16.83;;;6.75;;
20124;SDS011;10223;50.862;4.360;2022-10-17T10:34:00;11.32;;;6.85;;
20124;SDS011;10223;50.862;4.360;2022-10-17T10:39:41;13.38;;;7.03;;
20124;SDS011;10223;50.862;4.360;2022-10-17T10:42:17;12.90;;;6.03;;
20124;SDS011;10223;50.862;4.360;2022-10-17T10:44:47;10.38;;;6.45;;
20124;SDS011;10223;50.862;4.360;2022-10-17T10:47:21;12.02;;;6.80;;
20124;SDS011;10223;50.862;4.360;2022-10-17T10:49:50;9.65;;;6.05;;
20124;SDS011;10223;50.862;4.360;2022-10-17T10:52:23;14.70;;;6.38;;
20124;SDS011;10223;50.862;4.360;2022-10-17T10:54:58;14.00;;;6.63;;
20124;SDS011;10223;50.862;4.360;2022-10-17T10:57:30;11.40;;;7.35;;
20124;SDS011;10223;50.862;4.360;2022-10-17T11:00:03;11.77;;;6.53;;
20124;SDS011;10223;50.862;4.360;2022-10-17T11:02:39;12.93;;;6.60;;
20124;SDS011;10223;50.862;4.360;2022-10-17T11:05:12;11.45;;;5.88;;
20124;SDS011;10223;50.862;4.360;2022-10-17T11:07:45;10.00;;;6.70;;
20124;SDS011;10223;50.862;4.360;2022-10-17T11:10:22;12.80;;;6.50;;
20124;SDS011;10223;50.862;4.360;2022-10-17T11:12:56;11.98;;;6.43;;
20124;SDS011;10223;50.862;4.360;2022-10-17T11:15:29;14.05;;;6.78;;
20124;SDS011;10223;50.862;4.360;2022-10-17T11:18:02;13.50;;;6.10;;
20124;SDS011;10223;50.862;4.360;2022-10-17T11:20:33;15.97;;;7.30;;
20124;SDS011;10223;50.862;4.360;2022-10-17T11:23:11;14.63;;;6.57;;
20124;SDS011;10223;50.862;4.360;2022-10-17T11:25:44;19.13;;;6.95;;
20124;SDS011;10223;50.862;4.360;2022-10-17T11:28:13;13.30;;;6.70;;
20124;SDS011;10223;50.862;4.360;2022-10-17T11:30:43;12.55;;;6.88;;
20124;SDS011;10223;50.862;4.360;2022-10-17T11:33:16;11.37;;;6.80;;
20124;SDS011;10223;50.862;4.360;2022-10-17T11:35:49;10.77;;;6.45;;
20124;SDS011;10223;50.862;4.360;2022-10-17T11:38:20;16.33;;;7.07;;
20124;SDS011;10223;50.862;4.360;2022-10-17T11:40:52;10.52;;;6.35;;
20124;SDS011;10223;50.862;4.360;2022-10-17T11:43:24;16.35;;;7.03;;
20124;SDS011;10223;50.862;4.360;2022-10-17T11:45:57;16.90;;;7.07;;
20124;SDS011;10223;50.862;4.360;2022-10-17T11:48:31;9.48;;;5.85;;
20124;SDS011;10223;50.862;4.360;2022-10-17T11:51:07;15.70;;;6.47;;
20124;SDS011;10223;50.862;4.360;2022-10-17T11:53:41;16.58;;;5.97;;
20124;SDS011;10223;50.862;4.360;2022-10-17T11:56:12;14.83;;;6.83;;
20124;SDS011;10223;50.862;4.360;2022-10-17T11:58:45;16.60;;;7.20;;
20124;SDS011;10223;50.862;4.360;2022-10-17T12:01:20;16.77;;;6.55;;
20124;SDS011;10223;50.862;4.360;2022-10-17T12:04:00;13.17;;;6.70;;
20124;SDS011;10223;50.862;4.360;2022-10-17T12:06:50;11.68;;;6.57;;
20124;SDS011;10223;50.862;4.360;2022-10-17T12:09:26;15.00;;;6.60;;
20124;SDS011;10223;50.862;4.360;2022-10-17T12:12:01;16.42;;;6.68;;
20124;SDS011;10223;50.862;4.360;2022-10-17T12:14:36;15.35;;;6.68;;
20124;SDS011;10223;50.862;4.360;2022-10-17T12:22:51;14.27;;;6.40;;
20124;SDS011;10223;50.862;4.360;2022-10-17T12:25:20;13.35;;;7.10;;
20124;SDS011;10223;50.862;4.360;2022-10-17T12:27:50;15.70;;;7.13;;
20124;SDS011;10223;50.862;4.360;2022-10-17T12:30:34;14.30;;;7.03;;
20124;SDS011;10223;50.862;4.360;2022-10-17T12:33:02;11.75;;;6.53;;
20124;SDS011;10223;50.862;4.360;2022-10-17T12:35:33;12.65;;;6.97;;
20124;SDS011;10223;50.862;4.360;2022-10-17T12:40:56;17.30;;;8.43;;
20124;SDS011;10223;50.862;4.360;2022-10-17T12:46:40;16.23;;;7.30;;
20124;SDS011;10223;50.862;4.360;2022-10-17T12:49:23;17.63;;;7.30;;
20124;SDS011;10223;50.862;4.360;2022-10-17T12:52:21;14.95;;;6.60;;
20124;SDS011;10223;50.862;4.360;2022-10-17T12:54:50;18.70;;;6.85;;
20124;SDS011;10223;50.862;4.360;2022-10-17T12:57:22;11.90;;;6.47;;
20124;SDS011;10223;50.862;4.360;2022-10-17T12:59:55;18.23;;;7.55;;
20124;SDS011;10223;50.862;4.360;2022-10-17T13:02:23;16.88;;;7.32;;
20124;SDS011;10223;50.862;4.360;2022-10-17T13:04:54;18.20;;;6.95;;
20124;SDS011;10223;50.862;4.360;2022-10-17T13:07:34;11.05;;;7.10;;
20124;SDS011;10223;50.862;4.360;2022-10-17T13:10:02;12.63;;;7.28;;
20124;SDS011;10223;50.862;4.360;2022-10-17T13:12:31;10.88;;;7.15;;
20124;SDS011;10223;50.862;4.360;2022-10-17T13:15:02;11.95;;;6.65;;
20124;SDS011;10223;50.862;4.360;2022-10-17T13:17:32;17.52;;;6.53;;
20124;SDS011;10223;50.862;4.360;2022-10-17T13:20:00;12.65;;;6.10;;
20124;SDS011;10223;50.862;4.360;2022-10-17T13:22:28;13.13;;;6.53;;
20124;SDS011;10223;50.862;4.360;2022-10-17T13:25:08;11.60;;;6.47;;
20124;SDS011;10223;50.862;4.360;2022-10-17T13:27:39;12.57;;;6.00;;
20124;SDS011;10223;50.862;4.360;2022-10-17T13:32:59;10.60;;;5.85;;
20124;SDS011;10223;50.862;4.360;2022-10-17T13:35:27;8.55;;;5.10;;
20124;SDS011;10223;50.862;4.360;2022-10-17T13:37:56;15.25;;;5.70;;
20124;SDS011;10223;50.862;4.360;2022-10-17T13:40:29;14.15;;;5.20;;
20124;SDS011;10223;50.862;4.360;2022-10-17T13:43:03;8.73;;;4.38;;
20124;SDS011;10223;50.862;4.360;2022-10-17T13:45:37;6.95;;;4.20;;
20124;SDS011;10223;50.862;4.360;2022-10-17T13:48:04;9.48;;;4.25;;
20124;SDS011;10223;50.862;4.360;2022-10-17T13:50:41;8.93;;;3.92;;
20124;SDS011;10223;50.862;4.360;2022-10-17T13:53:14;10.00;;;3.90;;
20124;SDS011;10223;50.862;4.360;2022-10-17T13:55:55;8.15;;;4.13;;
20124;SDS011;10223;50.862;4.360;2022-10-17T13:58:24;7.18;;;3.38;;
20124;SDS011;10223;50.862;4.360;2022-10-17T14:00:52;9.23;;;3.42;;
20124;SDS011;10223;50.862;4.360;2022-10-17T14:03:20;11.20;;;4.10;;
20124;SDS011;10223;50.862;4.360;2022-10-17T14:06:02;5.28;;;3.40;;
20124;SDS011;10223;50.862;4.360;2022-10-17T14:08:35;4.90;;;3.15;;
20124;SDS011;10223;50.862;4.360;2022-10-17T14:11:13;7.25;;;3.45;;
20124;SDS011;10223;50.862;4.360;2022-10-17T14:13:49;9.20;;;2.90;;
20124;SDS011;10223;50.862;4.360;2022-10-17T14:16:18;7.97;;;3.55;;
20124;SDS011;10223;50.862;4.360;2022-10-17T14:18:47;7.35;;;3.33;;
20124;SDS011;10223;50.862;4.360;2022-10-17T14:21:19;7.93;;;3.45;;
20124;SDS011;10223;50.862;4.360;2022-10-17T14:23:47;7.05;;;3.47;;
20124;SDS011;10223;50.862;4.360;2022-10-17T14:26:16;5.55;;;3.15;;
20124;SDS011;10223;50.862;4.360;2022-10-17T14:28:48;7.18;;;3.63;;
20124;SDS011;10223;50.862;4.360;2022-10-17T14:31:30;6.82;;;3.33;;
20124;SDS011;10223;50.862;4.360;2022-10-17T14:33:59;8.65;;;3.10;;
20124;SDS011;10223;50.862;4.360;2022-10-17T14:36:35;5.90;;;3.50;;
20124;SDS011;10223;50.862;4.360;2022-10-17T14:39:04;6.13;;;3.10;;
20124;SDS011;10223;50.862;4.360;2022-10-17T14:41:34;6.13;;;3.42;;
20124;SDS011;10223;50.862;4.360;2022-10-17T14:44:04;8.68;;;2.97;;
20124;SDS011;10223;50.862;4.360;2022-10-17T14:46:33;6.88;;;3.15;;
20124;SDS011;10223;50.862;4.360;2022-10-17T14:49:03;6.43;;;3.63;;
20124;SDS011;10223;50.862;4.360;2022-10-17T14:51:31;11.70;;;2.97;;
20124;SDS011;10223;50.862;4.360;2022-10-17T14:54:00;3.55;;;2.40;;
20124;SDS011;10223;50.862;4.360;2022-10-17T14:56:35;6.25;;;2.95;;
20124;SDS011;10223;50.862;4.360;2022-10-17T14:59:05;6.20;;;2.75;;
20124;SDS011;10223;50.862;4.360;2022-10-17T15:01:34;5.80;;;3.30;;
20124;SDS011;10223;50.862;4.360;2022-10-17T15:04:01;6.55;;;3.92;;
20124;SDS011;10223;50.862;4.360;2022-10-17T15:06:31;11.25;;;3.33;;
20124;SDS011;10223;50.862;4.360;2022-10-17T15:08:59;5.75;;;3.38;;
20124;SDS011;10223;50.862;4.360;2022-10-17T15:11:26;5.78;;;3.17;;
20124;SDS011;10223;50.862;4.360;2022-10-17T15:13:54;6.97;;;3.00;;
20124;SDS011;10223;50.862;4.360;2022-10-17T15:16:22;6.43;;;3.10;;
20124;SDS011;10223;50.862;4.360;2022-10-17T15:18:50;11.45;;;3.38;;
20124;SDS011;10223;50.862;4.360;2022-10-17T15:21:19;6.55;;;3.60;;
20124;SDS011;10223;50.862;4.360;2022-10-17T15:23:48;7.10;;;3.58;;